createdAt,value
2018-11-07T00:00:02.013Z,7.30
2018-11-07T00:02:30.837Z,7.37
2018-11-07T00:04:59.393Z,6.40
2018-11-07T00:07:27.952Z,5.53
2018-11-07T00:09:56.308Z,6.77
2018-11-07T00:12:24.910Z,5.80
2018-11-07T00:14:53.441Z,6.10
2018-11-07T00:17:21.857Z,6.93
2018-11-07T00:19:50.371Z,7.20
2018-11-07T00:22:18.787Z,8.17
2018-11-07T00:24:47.291Z,5.73
2018-11-07T00:27:15.765Z,6.90
2018-11-07T00:29:44.297Z,7.13
2018-11-07T00:32:12.781Z,7.07
2018-11-07T00:34:41.312Z,7.13
2018-11-07T00:37:09.724Z,7.07
2018-11-07T00:39:38.203Z,7.00
2018-11-07T00:42:06.706Z,7.53
2018-11-07T00:44:35.062Z,9.37
2018-11-07T00:47:03.562Z,7.50
2018-11-07T00:49:31.979Z,6.60
2018-11-07T00:52:00.425Z,9.43
2018-11-07T00:54:28.838Z,7.23
2018-11-07T00:56:57.358Z,8.70
2018-11-07T00:59:25.842Z,6.47
2018-11-07T01:01:54.346Z,8.30
2018-11-07T01:04:22.767Z,7.77
2018-11-07T01:06:51.216Z,8.57
2018-11-07T01:09:19.746Z,6.80
2018-11-07T01:11:48.091Z,6.17
2018-11-07T01:14:16.638Z,6.37
2018-11-07T01:16:45.094Z,6.57
2018-11-07T01:19:13.560Z,5.53
2018-11-07T01:21:42.136Z,7.10
2018-11-07T01:24:10.637Z,5.70
2018-11-07T01:26:39.064Z,8.97
2018-11-07T01:29:07.504Z,6.60
2018-11-07T01:31:35.898Z,6.50
2018-11-07T01:34:04.856Z,6.57
2018-11-07T01:36:33.638Z,7.50
2018-11-07T01:39:02.089Z,6.70
2018-11-07T01:41:30.768Z,6.20
2018-11-07T01:43:59.450Z,5.57
2018-11-07T01:46:27.998Z,6.70
2018-11-07T01:48:56.409Z,8.10
2018-11-07T01:51:24.810Z,7.70
2018-11-07T01:53:53.317Z,8.00
2018-11-07T01:56:21.713Z,6.50
2018-11-07T01:58:50.149Z,6.10
2018-11-07T02:01:18.492Z,8.17
2018-11-07T02:03:46.856Z,7.33
2018-11-07T02:06:15.233Z,7.70
2018-11-07T02:08:43.736Z,7.30
2018-11-07T02:11:12.137Z,7.40
2018-11-07T02:13:40.664Z,6.50
2018-11-07T02:16:09.133Z,6.80
2018-11-07T02:18:37.498Z,6.17
2018-11-07T02:21:05.936Z,7.00
2018-11-07T02:23:34.401Z,6.77
2018-11-07T02:26:02.825Z,6.37
2018-11-07T02:28:31.346Z,6.60
2018-11-07T02:30:59.876Z,8.00
2018-11-07T02:33:28.329Z,7.17
2018-11-07T02:35:56.790Z,8.47
2018-11-07T02:38:25.268Z,7.37
2018-11-07T02:40:53.709Z,7.00
2018-11-07T02:43:22.165Z,6.73
2018-11-07T02:45:50.681Z,8.37
2018-11-07T02:48:19.059Z,9.30
2018-11-07T02:50:47.498Z,7.30
2018-11-07T02:53:15.952Z,7.37
2018-11-07T02:55:44.370Z,7.67
2018-11-07T02:58:12.776Z,6.13
2018-11-07T03:00:41.211Z,6.57
2018-11-07T03:03:09.589Z,6.57
2018-11-07T03:05:38.112Z,5.57
2018-11-07T03:08:06.660Z,6.20
2018-11-07T03:10:35.156Z,7.30
2018-11-07T03:13:03.690Z,7.43
2018-11-07T03:15:32.177Z,7.83
2018-11-07T03:18:00.658Z,6.53
2018-11-07T03:20:29.078Z,5.53
2018-11-07T03:22:57.511Z,6.87
2018-11-07T03:25:25.926Z,6.50
2018-11-07T03:27:54.336Z,5.97
2018-11-07T03:30:22.757Z,5.57
2018-11-07T03:32:51.292Z,4.87
2018-11-07T03:35:25.057Z,5.73
2018-11-07T03:37:53.719Z,5.50
2018-11-07T03:40:22.456Z,6.13
2018-11-07T03:42:50.988Z,6.03
2018-11-07T03:45:23.595Z,5.33
2018-11-07T03:47:52.017Z,5.23
2018-11-07T03:50:22.422Z,4.23
2018-11-07T03:52:50.946Z,6.17
2018-11-07T03:55:19.386Z,6.07
2018-11-07T03:57:47.735Z,6.70
2018-11-07T04:00:16.320Z,6.20
2018-11-07T04:02:44.713Z,5.60
2018-11-07T04:05:13.178Z,5.90
2018-11-07T04:07:42.423Z,5.87
2018-11-07T04:10:10.819Z,5.20
2018-11-07T04:12:39.399Z,6.20
2018-11-07T04:15:08.512Z,5.07
2018-11-07T04:17:37.036Z,6.13
2018-11-07T04:20:06.534Z,5.30
2018-11-07T04:22:35.055Z,4.90
2018-11-07T04:25:03.621Z,3.90
2018-11-07T04:27:32.160Z,5.27
2018-11-07T04:30:00.533Z,5.10
2018-11-07T04:32:28.918Z,5.03
2018-11-07T04:34:57.432Z,5.30
2018-11-07T04:37:25.915Z,4.33
2018-11-07T04:39:54.289Z,4.80
2018-11-07T04:42:22.681Z,4.30
2018-11-07T04:44:51.109Z,5.07
2018-11-07T04:47:19.653Z,5.47
2018-11-07T04:49:48.025Z,5.40
2018-11-07T04:52:16.412Z,5.23
2018-11-07T04:54:44.825Z,5.63
2018-11-07T04:57:13.228Z,4.23
2018-11-07T04:59:41.638Z,3.73
2018-11-07T05:02:10.142Z,4.00
2018-11-07T05:04:38.513Z,4.70
2018-11-07T05:07:07.004Z,3.87
2018-11-07T05:09:35.443Z,4.60
2018-11-07T05:12:04.148Z,4.60
2018-11-07T05:14:32.556Z,4.87
2018-11-07T05:17:01.024Z,3.97
2018-11-07T05:19:29.646Z,4.70
2018-11-07T05:21:58.077Z,5.10
2018-11-07T05:24:26.553Z,4.60
2018-11-07T05:26:54.956Z,4.20
2018-11-07T05:29:23.524Z,4.57
2018-11-07T05:31:51.987Z,4.73
2018-11-07T05:34:20.359Z,5.33
2018-11-07T05:36:48.810Z,4.77
2018-11-07T05:39:17.203Z,4.80
2018-11-07T05:41:45.596Z,4.23
2018-11-07T05:44:14.030Z,5.37
2018-11-07T05:46:42.534Z,7.80
2018-11-07T05:49:10.958Z,5.20
2018-11-07T05:51:39.604Z,6.13
2018-11-07T05:54:13.753Z,5.50
2018-11-07T05:56:47.528Z,5.00
2018-11-07T05:59:21.105Z,4.10
2018-11-07T06:01:55.006Z,3.80
2018-11-07T06:04:23.683Z,3.73
2018-11-07T06:06:52.161Z,3.97
2018-11-07T06:09:20.712Z,4.93
2018-11-07T06:11:49.248Z,4.57
2018-11-07T06:14:17.735Z,4.67
2018-11-07T06:16:46.403Z,4.60
2018-11-07T06:19:15.682Z,4.27
2018-11-07T06:21:44.976Z,4.17
2018-11-07T06:24:13.593Z,5.00
2018-11-07T06:26:42.129Z,4.63
2018-11-07T06:29:10.608Z,4.63
2018-11-07T06:31:39.201Z,4.97
2018-11-07T06:34:07.780Z,4.20
2018-11-07T06:36:36.177Z,4.27
2018-11-07T06:39:21.000Z,3.80
2018-11-07T06:41:49.573Z,4.07
2018-11-07T06:44:17.993Z,5.13
2018-11-07T06:46:46.428Z,4.00
2018-11-07T06:49:14.901Z,4.60
2018-11-07T06:51:43.305Z,5.00
2018-11-07T06:54:11.763Z,5.33
2018-11-07T06:56:40.197Z,4.13
2018-11-07T06:59:09.870Z,5.53
2018-11-07T07:01:38.300Z,3.83
2018-11-07T07:04:06.817Z,4.27
2018-11-07T07:06:35.361Z,4.50
2018-11-07T07:09:04.549Z,4.40
2018-11-07T07:11:33.004Z,4.53
2018-11-07T07:14:03.542Z,3.83
2018-11-07T07:16:32.184Z,4.40
2018-11-07T07:19:00.769Z,4.40
2018-11-07T07:21:29.334Z,5.00
2018-11-07T07:23:57.744Z,4.57
2018-11-07T07:26:26.261Z,5.17
2018-11-07T07:28:54.642Z,5.10
2018-11-07T07:31:23.051Z,5.60
2018-11-07T07:33:51.601Z,5.17
2018-11-07T07:36:20.014Z,4.30
2018-11-07T07:38:48.471Z,6.37
2018-11-07T07:41:16.866Z,5.53
2018-11-07T07:43:45.337Z,5.97
2018-11-07T07:46:14.811Z,4.87
2018-11-07T07:48:43.323Z,5.90
2018-11-07T07:51:11.774Z,5.83
2018-11-07T07:53:43.586Z,6.80
2018-11-07T07:56:12.158Z,6.23
2018-11-07T07:58:40.789Z,5.53
2018-11-07T08:01:09.327Z,6.33
2018-11-07T08:03:37.975Z,7.30
2018-11-07T08:06:06.625Z,5.57
2018-11-07T08:08:35.149Z,6.27
2018-11-07T08:11:04.818Z,7.47
2018-11-07T08:13:34.082Z,6.47
2018-11-07T08:16:03.726Z,7.63
2018-11-07T08:18:32.344Z,6.50
2018-11-07T08:21:02.409Z,5.70
2018-11-07T08:23:31.120Z,6.10
2018-11-07T08:26:02.981Z,5.10
2018-11-07T08:28:31.597Z,5.50
2018-11-07T08:31:04.391Z,6.13
2018-11-07T08:33:33.072Z,6.27
2018-11-07T08:36:02.751Z,5.50
2018-11-07T08:38:32.606Z,5.40
2018-11-07T08:41:02.904Z,6.90
2018-11-07T08:43:34.071Z,6.03
2018-11-07T08:46:03.196Z,5.77
2018-11-07T08:48:32.142Z,5.43
2018-11-07T08:51:04.808Z,6.80
2018-11-07T08:53:33.888Z,6.40
2018-11-07T08:56:04.153Z,6.37
2018-11-07T08:58:33.613Z,5.97
2018-11-07T09:01:04.719Z,7.37
2018-11-07T09:03:34.515Z,7.00
2018-11-07T09:06:04.997Z,6.63
2018-11-07T09:08:34.640Z,5.60
2018-11-07T09:11:04.800Z,6.83
2018-11-07T09:13:34.298Z,5.60
2018-11-07T09:16:02.807Z,6.30
2018-11-07T09:18:31.430Z,6.60
2018-11-07T09:21:00.516Z,6.40
2018-11-07T09:23:29.236Z,4.83
2018-11-07T09:26:10.133Z,5.80
2018-11-07T09:28:41.733Z,6.90
2018-11-07T09:31:10.653Z,5.43
2018-11-07T09:33:39.185Z,5.70
2018-11-07T09:36:07.700Z,6.33
2018-11-07T09:38:36.310Z,5.90
2018-11-07T09:41:05.112Z,5.67
2018-11-07T09:43:35.331Z,5.33
2018-11-07T09:46:03.868Z,5.53
2018-11-07T09:48:35.725Z,6.63
2018-11-07T09:51:06.505Z,6.50
2018-11-07T09:53:35.122Z,5.57
2018-11-07T09:56:04.700Z,5.43
2018-11-07T09:58:34.959Z,5.90
2018-11-07T10:01:05.261Z,5.70
2018-11-07T10:03:35.089Z,5.20
2018-11-07T10:06:03.624Z,5.43
2018-11-07T10:08:32.026Z,5.03
2018-11-07T10:11:00.625Z,5.70
2018-11-07T10:13:29.068Z,5.72
2018-11-07T10:15:57.530Z,5.33
2018-11-07T10:18:26.108Z,5.37
2018-11-07T10:20:54.528Z,4.50
2018-11-07T10:23:22.981Z,5.07
2018-11-07T10:25:51.530Z,4.47
2018-11-07T10:28:20.149Z,5.07
2018-11-07T10:30:48.378Z,4.00
2018-11-07T10:33:16.794Z,4.83
2018-11-07T10:35:45.253Z,4.43
2018-11-07T10:38:13.702Z,4.80
2018-11-07T10:40:42.168Z,4.47
2018-11-07T10:43:10.761Z,3.60
2018-11-07T10:45:39.205Z,3.77
2018-11-07T10:48:07.686Z,4.47
2018-11-07T10:50:36.149Z,4.50
2018-11-07T10:53:04.598Z,4.13
2018-11-07T10:55:32.981Z,3.93
2018-11-07T10:58:01.494Z,4.07
2018-11-07T11:00:35.463Z,3.30
2018-11-07T11:03:10.111Z,3.67
2018-11-07T11:05:39.184Z,2.93
2018-11-07T11:08:08.114Z,3.10
2018-11-07T11:10:36.669Z,3.30
2018-11-07T11:13:06.283Z,2.93
2018-11-07T11:15:34.688Z,3.77
2018-11-07T11:18:03.221Z,3.37
2018-11-07T11:20:31.641Z,3.57
2018-11-07T11:23:00.116Z,3.77
2018-11-07T11:25:28.622Z,3.50
2018-11-07T11:27:57.098Z,3.30
2018-11-07T11:30:25.541Z,3.20
2018-11-07T11:32:54.080Z,2.57
2018-11-07T11:35:22.625Z,3.47
2018-11-07T11:37:50.979Z,2.77
2018-11-07T11:40:19.639Z,2.73
2018-11-07T11:42:48.069Z,2.40
2018-11-07T11:45:17.244Z,2.83
2018-11-07T11:47:46.201Z,3.10
2018-11-07T11:50:17.003Z,2.90
2018-11-07T11:52:46.396Z,2.93
2018-11-07T11:55:14.839Z,2.93
2018-11-07T11:57:43.844Z,2.87
2018-11-07T12:00:20.420Z,2.33
2018-11-07T12:02:49.219Z,2.67
2018-11-07T12:05:18.388Z,2.47
2018-11-07T12:07:46.852Z,2.60
2018-11-07T12:10:17.982Z,2.70
2018-11-07T12:12:49.448Z,2.53
2018-11-07T12:15:18.879Z,3.13
2018-11-07T12:17:47.353Z,2.63
2018-11-07T12:20:15.757Z,2.80
2018-11-07T12:22:44.209Z,2.80
2018-11-07T12:25:13.653Z,3.10
2018-11-07T12:27:42.522Z,2.70
2018-11-07T12:30:13.881Z,2.67
2018-11-07T12:32:43.277Z,2.50
2018-11-07T12:35:11.699Z,2.90
2018-11-07T12:37:40.386Z,3.10
2018-11-07T12:40:09.677Z,3.07
2018-11-07T12:42:38.342Z,2.87
2018-11-07T12:45:08.417Z,2.87
2018-11-07T12:47:37.214Z,3.03
2018-11-07T12:50:07.855Z,2.83
2018-11-07T12:52:36.144Z,2.70
2018-11-07T12:55:05.921Z,2.70
2018-11-07T12:57:34.849Z,2.40
2018-11-07T13:00:03.329Z,2.70
2018-11-07T13:02:31.833Z,2.80
2018-11-07T13:05:00.276Z,3.20
2018-11-07T13:07:28.946Z,2.20
2018-11-07T13:09:57.461Z,2.40
2018-11-07T13:12:25.957Z,2.43
2018-11-07T13:14:54.339Z,3.07
2018-11-07T13:17:23.073Z,2.57
2018-11-07T13:19:52.578Z,2.30
2018-11-07T13:22:20.982Z,2.03
2018-11-07T13:24:49.438Z,2.17
2018-11-07T13:27:17.801Z,2.20
2018-11-07T13:29:46.192Z,1.83
2018-11-07T13:32:14.591Z,2.30
2018-11-07T13:34:43.185Z,2.37
2018-11-07T13:37:11.888Z,1.50
2018-11-07T13:39:40.125Z,1.70
2018-11-07T13:42:08.550Z,2.40
2018-11-07T13:44:36.965Z,2.13
2018-11-07T13:47:05.588Z,1.50
2018-11-07T13:49:34.150Z,1.83
2018-11-07T13:52:02.608Z,2.00
2018-11-07T13:54:31.168Z,1.40
2018-11-07T13:56:59.659Z,1.67
2018-11-07T13:59:28.190Z,1.90
2018-11-07T14:01:56.674Z,1.83
2018-11-07T14:04:25.102Z,1.97
2018-11-07T14:06:53.569Z,1.77
2018-11-07T14:09:22.115Z,2.47
2018-11-07T14:11:50.549Z,1.90
2018-11-07T14:14:18.952Z,2.10
2018-11-07T14:16:47.537Z,1.40
2018-11-07T14:19:16.049Z,1.60
2018-11-07T14:21:44.830Z,1.87
2018-11-07T14:24:13.313Z,1.90
2018-11-07T14:26:41.844Z,2.10
2018-11-07T14:29:11.261Z,2.00
2018-11-07T14:31:39.718Z,2.13
2018-11-07T14:34:08.230Z,1.70
2018-11-07T14:36:36.650Z,1.27
2018-11-07T14:39:07.194Z,1.73
2018-11-07T14:41:35.633Z,1.87
2018-11-07T14:44:04.289Z,1.80
2018-11-07T14:46:32.840Z,1.50
2018-11-07T14:49:01.571Z,1.90
2018-11-07T14:51:30.087Z,2.17
2018-11-07T14:53:58.557Z,1.60
2018-11-07T14:56:27.159Z,2.00
2018-11-07T14:58:55.810Z,2.03
2018-11-07T15:01:24.365Z,1.80
2018-11-07T15:03:52.876Z,1.37
2018-11-07T15:06:23.185Z,1.80
2018-11-07T15:08:51.821Z,1.77
2018-11-07T15:11:20.425Z,1.70
2018-11-07T15:13:48.824Z,1.20
2018-11-07T15:16:17.313Z,1.83
2018-11-07T15:18:45.753Z,2.23
2018-11-07T15:21:14.252Z,1.57
2018-11-07T15:23:42.667Z,1.80
2018-11-07T15:26:21.309Z,1.60
2018-11-07T15:28:49.777Z,1.60
2018-11-07T15:31:18.288Z,1.70
2018-11-07T15:33:46.772Z,1.90
2018-11-07T15:36:15.424Z,1.80
2018-11-07T15:38:44.787Z,1.57
2018-11-07T15:41:13.248Z,1.40
2018-11-07T15:43:42.376Z,1.70
2018-11-07T15:46:10.961Z,1.67
2018-11-07T15:48:39.425Z,1.90
2018-11-07T15:51:11.669Z,1.30
2018-11-07T15:53:40.927Z,1.97
2018-11-07T15:56:09.581Z,1.70
2018-11-07T15:58:38.343Z,1.73
2018-11-07T16:01:15.313Z,2.33
2018-11-07T16:03:49.527Z,1.60
2018-11-07T16:06:19.653Z,2.37
2018-11-07T16:08:48.000Z,1.43
2018-11-07T16:11:16.393Z,1.60
2018-11-07T16:13:44.796Z,2.17
2018-11-07T16:16:13.236Z,2.30
2018-11-07T16:18:41.695Z,2.40
2018-11-07T16:21:10.137Z,2.13
2018-11-07T16:23:38.616Z,2.67
2018-11-07T16:26:07.118Z,2.57
2018-11-07T16:28:35.576Z,2.77
2018-11-07T16:31:03.950Z,2.77
2018-11-07T16:33:32.403Z,2.83
2018-11-07T16:36:00.877Z,2.60
2018-11-07T16:38:29.449Z,3.53
2018-11-07T16:40:58.078Z,3.00
2018-11-07T16:43:26.553Z,3.10
2018-11-07T16:45:55.316Z,3.00
2018-11-07T16:48:23.811Z,2.83
2018-11-07T16:50:52.286Z,3.10
2018-11-07T16:53:20.719Z,3.10
2018-11-07T16:55:49.192Z,3.37
2018-11-07T16:58:17.978Z,3.83
2018-11-07T17:00:46.516Z,3.47
2018-11-07T17:03:15.062Z,3.70
2018-11-07T17:05:43.533Z,2.70
2018-11-07T17:08:12.049Z,3.10
2018-11-07T17:10:40.437Z,3.63
2018-11-07T17:13:08.836Z,3.60
2018-11-07T17:15:38.344Z,3.50
2018-11-07T17:18:06.851Z,2.83
2018-11-07T17:20:35.366Z,2.93
2018-11-07T17:23:03.831Z,3.20
2018-11-07T17:25:32.296Z,2.60
2018-11-07T17:28:00.742Z,2.77
2018-11-07T17:30:29.384Z,2.80
2018-11-07T17:32:57.950Z,2.83
2018-11-07T17:35:26.342Z,3.27
2018-11-07T17:37:54.744Z,2.80
2018-11-07T17:40:23.946Z,3.23
2018-11-07T17:42:53.211Z,3.00
2018-11-07T17:45:22.473Z,2.87
2018-11-07T17:47:51.796Z,3.20
2018-11-07T17:50:20.964Z,3.13
2018-11-07T17:52:49.767Z,2.80
2018-11-07T17:55:18.880Z,3.23
2018-11-07T17:57:47.891Z,3.57
2018-11-07T18:00:17.628Z,3.33
2018-11-07T18:02:46.056Z,2.70
2018-11-07T18:05:14.665Z,3.00
2018-11-07T18:07:43.160Z,3.00
2018-11-07T18:10:14.021Z,3.27
2018-11-07T18:12:42.898Z,3.43
2018-11-07T18:15:11.790Z,3.83
2018-11-07T18:17:40.236Z,3.40
2018-11-07T18:20:10.084Z,3.23
2018-11-07T18:22:38.836Z,3.60
2018-11-07T18:25:08.497Z,2.90
2018-11-07T18:27:36.991Z,3.47
2018-11-07T18:30:06.468Z,3.70
2018-11-07T18:32:35.017Z,2.77
2018-11-07T18:35:03.527Z,3.43
2018-11-07T18:37:31.915Z,3.10
2018-11-07T18:40:00.493Z,4.37
2018-11-07T18:42:28.982Z,3.57
2018-11-07T18:45:00.834Z,3.77
2018-11-07T18:47:32.589Z,3.43
2018-11-07T18:50:01.084Z,4.27
2018-11-07T18:52:29.496Z,3.27
2018-11-07T18:54:57.964Z,3.50
2018-11-07T18:57:26.536Z,3.97
2018-11-07T18:59:54.991Z,3.67
2018-11-07T19:02:23.499Z,3.97
2018-11-07T19:04:51.977Z,3.17
2018-11-07T19:07:20.432Z,3.40
2018-11-07T19:09:48.869Z,3.53
2018-11-07T19:12:17.315Z,3.30
2018-11-07T19:14:45.712Z,3.50
2018-11-07T19:17:14.107Z,3.67
2018-11-07T19:19:42.626Z,3.30
2018-11-07T19:22:11.047Z,3.27
2018-11-07T19:24:39.680Z,3.77
2018-11-07T19:27:08.093Z,3.83
2018-11-07T19:29:36.617Z,3.50
2018-11-07T19:32:05.017Z,3.40
2018-11-07T19:34:33.733Z,3.53
2018-11-07T19:37:04.413Z,3.03
2018-11-07T19:39:32.856Z,2.87
2018-11-07T19:42:01.342Z,3.70
2018-11-07T19:44:29.898Z,3.07
2018-11-07T19:46:58.465Z,3.60
2018-11-07T19:49:30.693Z,2.70
2018-11-07T19:52:01.138Z,3.90
2018-11-07T19:54:29.736Z,3.30
2018-11-07T19:56:58.332Z,3.20
2018-11-07T19:59:26.784Z,3.37
2018-11-07T20:01:55.389Z,3.03
2018-11-07T20:04:23.761Z,2.77
2018-11-07T20:06:52.367Z,3.63
2018-11-07T20:09:20.921Z,3.43
2018-11-07T20:11:49.389Z,3.00
2018-11-07T20:14:18.036Z,3.43
2018-11-07T20:16:47.579Z,3.07
2018-11-07T20:19:15.991Z,3.23
2018-11-07T20:21:44.549Z,3.07
2018-11-07T20:24:13.013Z,2.97
2018-11-07T20:26:41.405Z,3.33
2018-11-07T20:29:09.820Z,2.90
2018-11-07T20:31:38.185Z,2.77
2018-11-07T20:34:06.626Z,2.73
2018-11-07T20:36:35.046Z,2.57
2018-11-07T20:39:03.552Z,3.13
2018-11-07T20:41:32.037Z,2.53
2018-11-07T20:44:00.529Z,3.07
2018-11-07T20:46:28.941Z,2.97
2018-11-07T20:48:57.539Z,3.77
2018-11-07T20:51:25.973Z,3.40
2018-11-07T20:53:54.405Z,3.23
2018-11-07T20:56:22.874Z,3.03
2018-11-07T20:58:51.288Z,3.60
2018-11-07T21:01:19.788Z,3.17
2018-11-07T21:03:48.262Z,3.30
2018-11-07T21:06:17.230Z,3.13
2018-11-07T21:08:45.700Z,3.20
2018-11-07T21:11:14.145Z,2.87
2018-11-07T21:13:42.545Z,3.20
2018-11-07T21:16:22.704Z,3.10
2018-11-07T21:18:51.229Z,3.43
2018-11-07T21:21:19.715Z,2.93
2018-11-07T21:23:48.280Z,2.93
2018-11-07T21:26:16.693Z,2.60
2018-11-07T21:28:45.178Z,3.10
2018-11-07T21:31:13.615Z,2.47
2018-11-07T21:33:42.017Z,2.30
2018-11-07T21:36:10.364Z,3.03
2018-11-07T21:38:38.865Z,3.20
2018-11-07T21:41:07.371Z,2.60
2018-11-07T21:43:35.938Z,2.73
2018-11-07T21:46:04.426Z,3.50
2018-11-07T21:48:33.934Z,2.40
2018-11-07T21:51:02.453Z,2.57
2018-11-07T21:53:30.987Z,3.03
2018-11-07T21:55:59.426Z,2.90
2018-11-07T21:58:27.883Z,2.60
2018-11-07T22:00:56.384Z,2.70
2018-11-07T22:03:24.870Z,2.37
2018-11-07T22:05:53.416Z,3.03
2018-11-07T22:08:21.957Z,2.90
2018-11-07T22:10:50.479Z,2.67
2018-11-07T22:13:20.993Z,2.90
2018-11-07T22:15:49.364Z,2.90
2018-11-07T22:18:17.836Z,3.00
2018-11-07T22:20:46.328Z,2.43
2018-11-07T22:23:14.797Z,2.40
2018-11-07T22:25:43.195Z,3.10
2018-11-07T22:28:11.653Z,3.70
2018-11-07T22:30:40.201Z,3.20
2018-11-07T22:33:08.592Z,3.27
2018-11-07T22:35:37.132Z,2.67
2018-11-07T22:38:05.569Z,2.47
2018-11-07T22:40:34.002Z,3.20
2018-11-07T22:43:02.428Z,2.90
2018-11-07T22:45:30.931Z,2.53
2018-11-07T22:47:59.519Z,3.23
2018-11-07T22:50:28.775Z,2.63
2018-11-07T22:52:57.277Z,2.60
2018-11-07T22:55:25.693Z,2.53
2018-11-07T22:57:54.209Z,3.10
2018-11-07T23:00:27.881Z,2.40
2018-11-07T23:02:56.713Z,3.10
2018-11-07T23:05:25.190Z,2.50
2018-11-07T23:07:53.717Z,2.37
2018-11-07T23:10:22.312Z,2.60
2018-11-07T23:12:51.301Z,2.80
2018-11-07T23:15:25.058Z,2.47
2018-11-07T23:17:53.660Z,2.83
2018-11-07T23:20:22.088Z,2.50
2018-11-07T23:22:50.523Z,3.20
2018-11-07T23:25:18.889Z,3.33
2018-11-07T23:27:47.310Z,2.77
2018-11-07T23:30:15.735Z,3.17
2018-11-07T23:32:44.337Z,3.20
2018-11-07T23:35:12.754Z,2.63
2018-11-07T23:37:41.253Z,2.50
2018-11-07T23:40:09.787Z,3.00
2018-11-07T23:42:38.248Z,2.70
2018-11-07T23:45:07.014Z,2.50
2018-11-07T23:47:35.556Z,2.60
2018-11-07T23:50:04.087Z,2.43
2018-11-07T23:52:38.053Z,1.83
2018-11-07T23:55:06.545Z,2.43
2018-11-07T23:57:35.022Z,2.70
